»·PEaware :: JNY297 KASE-KDEN

JNY297 :: KASE-KDEN

FLIGHT INFORMATION

Flight Status: Arrived
Operator: Unknown
More flights by this operator :: More flights under this callsign
Pilot: Max W. (2591)
Aircraft: BOEING 727-200
(B722)
More flights by this aircraft type
Origin: KASE Aspen-Pitkin Co/Sardy
United States
Destination: KDEN Denver Intl
United States
More flights between these airports :: More routes between these airports
Route: +LINDZ9 DBL POWDR9
File this flight plan on PilotEdge
Remarks: STUDENT PILOT
Altitude:
(Current/Filed)
21,000ft
Speed:
(Current/Filed)
450kts
Departed: 27-Oct-19 05:31 PM
Arrived: 27-Oct-19 06:02 PM
Distance/Time
Traveled:
109nm/0:30
Distance/Time
To Go:
Arrived

Flight Plot

Page will automatically refresh every two minutes.

Flight plan parsing failed; only flown route is shown


Map Options




Map Legend


Flown Route
Filed Route
Departure Airport
Arrival Airport
Navaid (VOR, NDB)
Fix

Horizontal Profiles

Position Reports

Time Latitude Longitude Heading Altitude Ground
Speed
27-Oct-19 17:12 39.223845 -106.867391 282 7785ft 0kts
27-Oct-19 17:13 39.223845 -106.867391 282 7785ft 0kts
27-Oct-19 17:14 39.223845 -106.867391 282 7785ft 0kts
27-Oct-19 17:15 39.223845 -106.867391 282 7785ft 0kts
27-Oct-19 17:16 39.223845 -106.867391 282 7785ft 0kts
27-Oct-19 17:17 39.223845 -106.867391 282 7785ft 0kts
27-Oct-19 17:18 39.223845 -106.867391 282 7785ft 0kts
27-Oct-19 17:19 39.223845 -106.867391 282 7785ft 0kts
27-Oct-19 17:20 39.223845 -106.867391 282 7785ft 0kts
27-Oct-19 17:21 39.223845 -106.867391 282 7785ft 0kts
27-Oct-19 17:22 39.223845 -106.867391 282 7785ft 0kts
27-Oct-19 17:23 39.223845 -106.867391 282 7785ft 0kts
27-Oct-19 17:24 39.223845 -106.867391 282 7785ft 0kts
27-Oct-19 17:25 39.223845 -106.867391 282 7785ft 0kts
27-Oct-19 17:26 39.223872 -106.867521 282 7785ft 0kts
27-Oct-19 17:27 39.222934 -106.867541 161 7785ft 11kts
27-Oct-19 17:28 39.217534 -106.864934 159 7785ft 19kts
27-Oct-19 17:29 39.212790 -106.862725 158 7785ft 18kts
27-Oct-19 17:30 39.214833 -106.864903 341 7785ft 81kts
27-Oct-19 17:31 39.253634 -106.879092 355 9017ft 169kts
27-Oct-19 17:32 39.288039 -106.927806 289 10760ft 232kts
27-Oct-19 17:33 39.309758 -107.006206 322 13648ft 231kts
27-Oct-19 17:34 39.364628 -106.982370 43 15946ft 266kts
27-Oct-19 17:35 39.421651 -106.915295 35 18787ft 277kts
27-Oct-19 17:36 39.422030 -106.808888 118 21101ft 350kts
27-Oct-19 17:37 39.395053 -106.682298 108 20979ft 365kts
27-Oct-19 17:38 39.368279 -106.553147 108 20983ft 381kts
27-Oct-19 17:39 39.339472 -106.415952 108 20985ft 404kts
27-Oct-19 17:40 39.309779 -106.277163 109 20925ft 424kts
27-Oct-19 17:41 39.316509 -106.124384 62 20960ft 469kts
27-Oct-19 17:42 39.377656 -105.982031 85 20978ft 439kts
27-Oct-19 17:43 39.396615 -105.828536 88 20964ft 420kts
27-Oct-19 17:44 39.404913 -105.703840 95 19451ft 307kts
27-Oct-19 17:45 39.427835 -105.608190 80 19159ft 273kts
27-Oct-19 17:46 39.445194 -105.510394 83 18678ft 286kts
27-Oct-19 17:47 39.458435 -105.408079 83 16807ft 285kts
27-Oct-19 17:48 39.457840 -105.308308 92 15042ft 283kts
27-Oct-19 17:49 39.454221 -105.205910 92 13314ft 285kts
27-Oct-19 17:50 39.450309 -105.102683 92 11955ft 281kts
27-Oct-19 17:51 39.447728 -105.002113 91 10118ft 280kts
27-Oct-19 17:52 39.446247 -104.903864 91 9956ft 272kts
27-Oct-19 17:53 39.445308 -104.811849 89 9099ft 253kts
27-Oct-19 17:54 39.491646 -104.755379 27 8964ft 246kts
27-Oct-19 17:55 39.555609 -104.712718 31 8383ft 271kts
27-Oct-19 17:56 39.613317 -104.665664 21 7972ft 243kts
27-Oct-19 17:57 39.679681 -104.662356 0 7969ft 224kts
27-Oct-19 17:58 39.734381 -104.662351 1 7458ft 166kts
27-Oct-19 17:59 39.775288 -104.661222 2 6329ft 144kts
27-Oct-19 18:00 39.814203 -104.660262 1 5647ft 133kts
27-Oct-19 18:01 39.841643 -104.660452 348 5329ft 19kts
27-Oct-19 18:02 39.839893 -104.664064 218 5329ft 13kts

Navigation Log

Ident Type
Flight plan parsing failed, navigation log unavailable